Time;durP1;ratioP1;P1;durP2;ratioP2;P2;SDS_P1;SDS_P2;PMS_P1;PMS_P2;Temp;Humidity;BMP_temperature;BMP_pressure;BME280_temperature;BME280_humidity;BME280_pressure;Samples;Min_cycle;Max_cycle;Signal;HPM_P1;HPM_P2
2022/06/02 00:00:06;;;;;;;11.63;10.70;;;15.00;99.90;;;;;;5043136;28;20228;-46
2022/06/02 00:02:41;;;;;;;11.00;10.17;;;15.10;99.90;;;;;;5039358;28;20194;-46
2022/06/02 00:05:18;;;;;;;11.03;10.10;;;15.20;99.90;;;;;;5042856;28;20202;-46
2022/06/02 00:08:01;;;;;;;9.20;8.60;;;15.20;99.90;;;;;;5044540;28;20194;-46
2022/06/02 00:10:42;;;;;;;11.50;10.60;;;15.10;99.90;;;;;;5032804;28;20214;-46
2022/06/02 00:13:20;;;;;;;11.30;10.13;;;15.00;99.90;;;;;;5042470;28;20205;-46
2022/06/02 00:15:53;;;;;;;11.30;10.17;;;15.00;99.90;;;;;;5048596;28;20267;-46
2022/06/02 00:18:29;;;;;;;11.37;10.37;;;15.00;99.90;;;;;;5046250;28;20200;-46
2022/06/02 00:21:02;;;;;;;11.60;10.60;;;15.00;99.90;;;;;;5041959;28;20194;-46
2022/06/02 00:23:47;;;;;;;10.50;9.60;;;15.00;99.90;;;;;;5047287;28;20549;-46
2022/06/02 00:26:34;;;;;;;11.37;10.37;;;15.00;99.90;;;;;;5032694;28;20207;-46
2022/06/02 00:29:13;;;;;;;10.57;9.67;;;15.00;99.90;;;;;;5048341;28;20498;-46
2022/06/02 00:31:49;;;;;;;10.83;9.93;;;15.00;99.90;;;;;;5039388;28;20222;-46
2022/06/02 00:34:29;;;;;;;12.53;11.20;;;14.90;99.90;;;;;;5040235;28;20198;-47
2022/06/02 00:37:10;;;;;;;10.97;10.10;;;15.00;99.90;;;;;;5040663;28;20206;-46
2022/06/02 00:39:40;;;;;;;13.20;11.97;;;15.00;99.90;;;;;;5032300;28;20240;-47
2022/06/02 00:42:39;;;;;;;13.37;12.10;;;15.00;99.90;;;;;;5033151;28;20194;-47
2022/06/02 00:45:09;;;;;;;10.57;9.67;;;15.00;99.90;;;;;;5043572;28;20198;-46
2022/06/02 00:47:51;;;;;;;12.40;11.40;;;15.00;99.90;;;;;;5049463;28;20213;-46
2022/06/02 00:50:44;;;;;;;12.77;11.77;;;15.00;99.90;;;;;;5040392;28;20218;-46
2022/06/02 00:53:15;;;;;;;13.50;12.27;;;14.90;99.90;;;;;;5040842;28;20194;-46
2022/06/02 00:59:00;;;;;;;12.97;11.87;;;14.90;99.90;;;;;;5052152;28;20216;-47
2022/06/02 01:01:29;;;;;;;11.53;10.63;;;15.00;99.90;;;;;;5051013;28;20629;-46
2022/06/02 01:03:57;;;;;;;10.80;9.93;;;14.90;99.90;;;;;;5042260;28;20692;-47
2022/06/02 01:06:38;;;;;;;11.50;10.53;;;14.90;99.90;;;;;;5043157;28;20714;-47
2022/06/02 01:09:32;;;;;;;11.30;10.50;;;15.00;99.90;;;;;;5040200;28;20222;-46
2022/06/02 01:12:19;;;;;;;12.47;11.53;;;15.00;99.90;;;;;;5032739;28;20219;-46
2022/06/02 01:14:59;;;;;;;12.73;11.73;;;14.90;99.90;;;;;;5046961;28;20649;-46
2022/06/02 01:17:38;;;;;;;13.40;12.40;;;14.90;99.90;;;;;;5044269;28;20255;-46
2022/06/02 01:20:26;;;;;;;13.23;12.10;;;15.00;99.90;;;;;;5051457;28;20597;-46
2022/06/02 01:23:30;;;;;;;12.63;11.73;;;14.90;99.90;;;;;;5051481;28;20202;-46
2022/06/02 01:26:25;;;;;;;13.90;12.63;;;14.90;99.90;;;;;;5051726;28;20256;-47
2022/06/02 01:28:59;;;;;;;11.83;10.77;;;15.00;99.90;;;;;;5049690;28;20272;-46
2022/06/02 01:31:49;;;;;;;12.67;11.60;;;14.90;99.90;;;;;;5049721;28;20217;-46
2022/06/02 01:34:34;;;;;;;13.87;12.57;;;14.90;99.90;;;;;;5039836;28;20272;-46
2022/06/02 01:37:10;;;;;;;13.93;12.83;;;14.90;99.90;;;;;;5034415;28;20205;-46
2022/06/02 01:39:57;;;;;;;13.87;12.60;;;15.00;99.90;;;;;;5039621;28;20252;-46
2022/06/02 01:42:36;;;;;;;12.90;11.80;;;15.00;99.90;;;;;;5033688;28;20198;-46
2022/06/02 01:45:10;;;;;;;14.00;12.67;;;15.00;99.90;;;;;;5048672;28;20193;-46
2022/06/02 01:47:42;;;;;;;14.37;13.20;;;15.00;99.90;;;;;;5049578;28;20255;-46
2022/06/02 01:50:28;;;;;;;12.60;11.60;;;15.00;99.90;;;;;;5051521;28;20225;-46
2022/06/02 01:53:04;;;;;;;14.03;12.53;;;15.00;99.90;;;;;;5051454;28;20198;-46
2022/06/02 01:55:58;;;;;;;15.60;14.40;;;14.90;99.90;;;;;;5044087;28;20198;-46
2022/06/02 01:58:42;;;;;;;15.77;14.37;;;15.00;99.90;;;;;;5039371;28;20306;-46
2022/06/02 02:01:33;;;;;;;11.67;10.87;;;15.00;99.90;;;;;;5042226;28;20198;-46
2022/06/02 02:04:17;;;;;;;13.13;11.93;;;15.00;99.90;;;;;;5050134;28;20283;-46
2022/06/02 02:06:55;;;;;;;12.53;11.53;;;14.90;99.90;;;;;;5050383;28;20590;-46
2022/06/02 02:09:29;;;;;;;14.83;13.43;;;14.90;99.90;;;;;;5045827;28;20591;-46
2022/06/02 02:11:58;;;;;;;14.40;13.40;;;15.00;99.90;;;;;;5041919;28;20288;-47
2022/06/02 02:15:01;;;;;;;13.97;12.93;;;14.90;99.90;;;;;;5037423;28;20199;-46
2022/06/02 02:17:45;;;;;;;14.40;12.93;;;14.90;99.90;;;;;;5031276;28;20229;-46
2022/06/02 02:20:26;;;;;;;16.47;15.00;;;14.90;99.90;;;;;;5037848;28;20217;-47
2022/06/02 02:23:00;;;;;;;17.33;15.70;;;14.90;99.90;;;;;;5033461;28;20256;-46
2022/06/02 02:25:32;;;;;;;15.47;14.17;;;14.90;99.90;;;;;;5032853;28;20248;-46
2022/06/02 02:28:06;;;;;;;14.97;13.67;;;14.90;99.90;;;;;;5039787;28;20203;-46
2022/06/02 02:30:48;;;;;;;15.43;14.00;;;14.90;99.90;;;;;;5031370;28;20637;-46
2022/06/02 02:33:24;;;;;;;14.73;13.53;;;15.00;99.90;;;;;;5039284;28;20252;-46
2022/06/02 02:36:01;;;;;;;15.40;14.20;;;15.00;99.90;;;;;;5031343;28;20206;-46
2022/06/02 02:38:36;;;;;;;14.10;12.87;;;15.00;99.90;;;;;;5030932;28;20805;-46
2022/06/02 02:41:07;;;;;;;15.50;14.00;;;15.00;99.90;;;;;;5042644;28;20202;-46
2022/06/02 02:43:39;;;;;;;14.77;13.57;;;15.00;99.90;;;;;;5050349;28;20799;-46
2022/06/02 02:46:13;;;;;;;15.40;14.10;;;15.10;99.90;;;;;;5041947;28;20229;-46
2022/06/02 02:48:51;;;;;;;14.37;13.20;;;15.20;99.90;;;;;;5046183;28;20621;-46
2022/06/02 02:51:32;;;;;;;15.60;14.40;;;15.10;99.90;;;;;;5054459;28;20634;-47
2022/06/02 02:54:05;;;;;;;15.10;13.80;;;15.10;99.90;;;;;;5051486;28;20255;-46
2022/06/02 02:56:39;;;;;;;13.77;12.73;;;15.00;99.90;;;;;;5047950;28;20197;-46
2022/06/02 02:59:17;;;;;;;16.00;14.77;;;15.00;99.90;;;;;;5045818;28;20629;-46
2022/06/02 03:01:49;;;;;;;15.57;14.17;;;14.90;99.90;;;;;;5051539;28;21082;-46
2022/06/02 03:04:31;;;;;;;15.87;14.33;;;14.90;99.90;;;;;;5053404;28;20205;-46
2022/06/02 03:06:59;;;;;;;15.40;13.80;;;14.90;99.90;;;;;;5053209;28;20232;-46
2022/06/02 03:09:34;;;;;;;14.53;13.33;;;15.00;99.90;;;;;;5038331;28;20646;-47
2022/06/02 03:12:10;;;;;;;14.27;13.17;;;15.00;99.90;;;;;;5033790;28;20214;-46
2022/06/02 03:14:55;;;;;;;15.63;14.20;;;14.90;99.90;;;;;;5034125;28;20248;-46
2022/06/02 03:17:33;;;;;;;13.00;11.93;;;14.90;99.90;;;;;;5034150;28;20202;-47
2022/06/02 03:20:06;;;;;;;12.83;11.73;;;14.90;99.90;;;;;;5046611;28;20214;-46
2022/06/02 03:22:45;;;;;;;13.20;12.10;;;14.80;99.90;;;;;;5046718;28;20677;-46
2022/06/02 03:25:18;;;;;;;16.20;14.57;;;14.80;99.90;;;;;;5049086;28;20204;-46
2022/06/02 03:27:52;;;;;;;16.27;14.97;;;14.80;99.90;;;;;;5041928;28;20195;-46
2022/06/02 03:30:22;;;;;;;16.57;15.00;;;14.90;99.90;;;;;;5052611;28;20217;-46
2022/06/02 03:33:02;;;;;;;16.10;14.50;;;15.00;99.90;;;;;;5052707;28;20843;-46
2022/06/02 03:35:36;;;;;;;14.03;12.83;;;15.00;99.90;;;;;;5049853;28;20197;-46
2022/06/02 03:38:30;;;;;;;13.20;12.30;;;14.90;99.90;;;;;;5053259;28;20668;-46
2022/06/02 03:41:21;;;;;;;16.30;14.93;;;14.90;99.90;;;;;;5070836;22;20226;-49
2022/06/02 03:43:53;;;;;;;13.43;12.37;;;14.90;99.90;;;;;;5053043;28;20198;-50
2022/06/02 03:46:40;;;;;;;14.53;13.37;;;14.90;99.90;;;;;;5053185;28;20209;-49
2022/06/02 03:49:41;;;;;;;15.87;14.57;;;14.90;99.90;;;;;;5052848;28;20749;-49
2022/06/02 03:52:23;;;;;;;13.97;12.87;;;14.80;99.90;;;;;;5050980;28;20687;-49
2022/06/02 03:55:09;;;;;;;15.57;14.27;;;14.80;99.90;;;;;;5050771;28;20205;-49
2022/06/02 03:57:53;;;;;;;15.17;13.67;;;14.80;99.90;;;;;;5050487;28;20197;-49
2022/06/02 04:00:25;;;;;;;17.60;16.13;;;14.80;99.90;;;;;;5044792;28;20214;-49
2022/06/02 04:02:55;;;;;;;16.40;15.00;;;14.80;99.90;;;;;;5033010;28;20257;-50
2022/06/02 04:06:00;;;;;;;14.77;13.57;;;14.80;99.90;;;;;;5051100;28;20197;-50
2022/06/02 04:08:53;;;;;;;15.07;13.67;;;14.90;99.90;;;;;;5042218;28;20672;-50
2022/06/02 04:14:24;;;;;;;16.30;14.83;;;14.90;99.90;;;;;;5050917;28;20221;-50
2022/06/02 04:17:04;;;;;;;16.17;14.73;;;15.00;99.90;;;;;;5056346;28;20267;-49
2022/06/02 04:22:44;;;;;;;15.23;13.87;;;15.10;99.90;;;;;;5049090;28;20251;-49
2022/06/02 04:25:27;;;;;;;14.33;13.13;;;15.10;99.90;;;;;;5050076;28;20235;-50
2022/06/02 04:28:05;;;;;;;13.57;12.37;;;15.10;99.90;;;;;;5051178;28;20267;-49
2022/06/02 04:30:42;;;;;;;18.60;16.90;;;15.20;99.90;;;;;;5048692;28;20245;-52
2022/06/02 04:33:17;;;;;;;15.00;13.60;;;15.10;99.90;;;;;;5059387;28;20242;-50
2022/06/02 04:35:58;;;;;;;16.73;15.13;;;15.20;99.90;;;;;;5052043;28;20243;-48
2022/06/02 04:38:31;;;;;;;17.93;16.37;;;15.20;99.90;;;;;;5049622;28;20244;-49
2022/06/02 04:41:19;;;;;;;16.33;14.80;;;15.20;99.90;;;;;;5052491;28;20221;-49
2022/06/02 04:44:00;;;;;;;15.83;14.33;;;15.20;99.90;;;;;;5050673;28;20209;-49
2022/06/02 04:46:41;;;;;;;18.60;16.97;;;15.20;99.90;;;;;;5046923;28;20209;-49
2022/06/02 04:49:18;;;;;;;18.50;16.90;;;15.30;99.90;;;;;;5050632;28;20224;-49
2022/06/02 04:51:52;;;;;;;16.17;14.77;;;15.40;99.90;;;;;;5047901;28;20214;-49
2022/06/02 04:54:36;;;;;;;15.73;14.43;;;15.40;99.90;;;;;;5047913;28;20217;-49
2022/06/02 04:57:11;;;;;;;15.83;14.53;;;15.50;99.90;;;;;;5051540;28;20509;-49
2022/06/02 04:59:49;;;;;;;16.27;14.90;;;15.50;99.90;;;;;;5050439;28;20309;-50
2022/06/02 05:02:24;;;;;;;15.27;14.07;;;15.60;99.90;;;;;;5054167;28;20193;-49
2022/06/02 05:05:03;;;;;;;18.27;16.67;;;15.70;99.90;;;;;;5048090;28;20250;-50
2022/06/02 05:07:41;;;;;;;17.50;15.83;;;15.80;99.90;;;;;;5048026;28;20197;-49
2022/06/02 05:10:15;;;;;;;16.53;15.23;;;15.80;99.90;;;;;;5049223;28;20733;-49
2022/06/02 05:12:56;;;;;;;17.13;15.73;;;15.90;99.90;;;;;;5052613;28;20213;-49
2022/06/02 05:15:48;;;;;;;17.87;16.17;;;15.90;99.90;;;;;;5050978;28;20213;-49
2022/06/02 05:18:35;;;;;;;17.40;15.90;;;16.00;99.90;;;;;;5051326;28;20242;-49
2022/06/02 05:21:24;;;;;;;16.73;15.23;;;16.00;99.90;;;;;;5046355;28;20323;-49
2022/06/02 05:24:21;;;;;;;17.37;15.87;;;16.20;99.90;;;;;;5053543;28;20194;-49
2022/06/02 05:27:28;;;;;;;18.03;16.47;;;16.30;99.90;;;;;;5036588;28;20259;-49
2022/06/02 05:30:20;;;;;;;17.20;15.53;;;16.30;99.90;;;;;;5047876;28;20234;-49
2022/06/02 05:33:20;;;;;;;17.07;15.73;;;16.40;99.90;;;;;;5046009;28;20781;-49
2022/06/02 05:36:20;;;;;;;16.40;14.90;;;16.40;99.90;;;;;;5041816;28;20281;-52
2022/06/02 05:38:57;;;;;;;12.90;11.90;;;16.50;99.90;;;;;;5051471;28;20216;-49
2022/06/02 05:41:44;;;;;;;10.80;9.93;;;16.60;99.90;;;;;;5049471;28;20698;-49
2022/06/02 05:44:22;;;;;;;10.07;9.27;;;16.80;99.90;;;;;;5043995;28;21581;-49
2022/06/02 05:47:11;;;;;;;9.90;9.20;;;17.30;99.90;;;;;;5050196;28;20259;-49
2022/06/02 05:49:51;;;;;;;10.13;9.37;;;17.60;99.90;;;;;;5052999;28;20225;-49
2022/06/02 05:52:29;;;;;;;8.13;7.53;;;17.60;99.90;;;;;;5047301;28;20295;-49
2022/06/02 05:55:16;;;;;;;9.17;8.27;;;17.40;99.90;;;;;;5058398;28;20621;-49
2022/06/02 05:57:58;;;;;;;8.37;7.70;;;17.20;99.90;;;;;;5048002;28;20271;-50
2022/06/02 06:00:36;;;;;;;10.27;9.27;;;17.20;99.90;;;;;;5048163;28;20225;-50
2022/06/02 06:03:32;;;;;;;9.73;8.90;;;17.10;99.90;;;;;;5051216;28;20331;-50
2022/06/02 06:06:05;;;;;;;8.43;7.73;;;17.00;99.90;;;;;;5053410;28;20221;-49
2022/06/02 06:08:47;;;;;;;9.50;8.87;;;16.90;99.90;;;;;;5046413;28;20256;-49
2022/06/02 06:11:26;;;;;;;8.77;7.97;;;16.90;99.90;;;;;;5040008;28;20698;-49
2022/06/02 06:14:16;;;;;;;7.87;7.47;;;16.80;99.90;;;;;;5049333;28;20233;-49
2022/06/02 06:16:48;;;;;;;8.50;8.00;;;16.80;99.90;;;;;;5049247;28;20331;-49
2022/06/02 06:19:25;;;;;;;9.27;8.60;;;16.70;99.90;;;;;;5049326;28;20260;-49
2022/06/02 06:22:09;;;;;;;9.70;9.10;;;16.60;99.90;;;;;;5051231;28;20198;-49
2022/06/02 06:24:50;;;;;;;8.13;7.53;;;16.60;99.90;;;;;;5052644;28;20198;-50
2022/06/02 06:27:27;;;;;;;8.47;7.87;;;16.70;99.90;;;;;;5050880;28;20225;-49
2022/06/02 06:30:06;;;;;;;9.17;8.53;;;16.80;99.90;;;;;;5052794;28;20220;-50
2022/06/02 06:32:39;;;;;;;9.97;9.17;;;16.90;99.90;;;;;;5050422;28;20223;-49
2022/06/02 06:35:22;;;;;;;9.60;9.00;;;17.10;99.90;;;;;;5053035;28;20220;-50
2022/06/02 06:38:23;;;;;;;9.70;8.80;;;17.20;99.90;;;;;;5052672;28;20251;-50
2022/06/02 06:41:10;;;;;;;10.43;9.73;;;17.40;99.90;;;;;;5045858;28;20225;-49
2022/06/02 06:43:59;;;;;;;9.87;9.00;;;17.90;99.90;;;;;;5052460;28;20186;-50
2022/06/02 06:46:36;;;;;;;9.83;9.20;;;18.80;99.90;;;;;;5052203;28;20217;-50
2022/06/02 06:49:11;;;;;;;10.27;9.40;;;19.10;99.90;;;;;;5050162;28;20201;-50
2022/06/02 06:51:49;;;;;;;10.93;9.83;;;19.40;99.90;;;;;;5052419;28;20205;-50
2022/06/02 06:54:28;;;;;;;10.80;9.90;;;20.30;99.90;;;;;;5052141;28;20225;-50
2022/06/02 06:57:02;;;;;;;11.47;10.67;;;21.50;99.90;;;;;;5051635;28;20271;-50
2022/06/02 06:59:50;;;;;;;10.13;9.23;;;22.40;99.90;;;;;;5052276;28;20213;-50
2022/06/02 07:02:28;;;;;;;10.13;9.43;;;22.30;99.90;;;;;;5051871;28;20205;-50
2022/06/02 07:05:03;;;;;;;16.73;11.23;;;21.60;99.90;;;;;;5052630;28;20664;-50
2022/06/02 07:07:40;;;;;;;11.77;8.47;;;20.80;99.90;;;;;;5052584;28;20243;-50
2022/06/02 07:10:14;;;;;;;10.70;9.97;;;20.10;99.90;;;;;;5046896;28;20726;-50
2022/06/02 07:12:50;;;;;;;11.20;10.23;;;19.80;99.90;;;;;;5039828;28;20280;-50
2022/06/02 07:15:37;;;;;;;10.13;9.33;;;19.50;99.90;;;;;;5048534;28;20186;-49
2022/06/02 07:18:13;;;;;;;10.00;9.30;;;19.10;99.90;;;;;;5047887;28;20202;-50
2022/06/02 07:20:51;;;;;;;11.23;10.50;;;18.90;99.90;;;;;;5054135;28;20645;-50
2022/06/02 07:23:29;;;;;;;12.50;11.60;;;18.90;99.90;;;;;;5033031;28;20202;-49
2022/06/02 07:26:11;;;;;;;11.70;10.50;;;18.90;99.90;;;;;;5048686;28;20237;-49
2022/06/02 07:28:53;;;;;;;12.07;11.17;;;19.20;99.90;;;;;;5050927;28;20205;-50
2022/06/02 07:31:49;;;;;;;12.50;11.50;;;19.40;99.90;;;;;;5048054;28;20279;-50
2022/06/02 07:34:33;;;;;;;13.67;12.57;;;19.40;99.90;;;;;;5053070;28;20267;-49
2022/06/02 07:37:23;;;;;;;14.07;12.87;;;19.70;99.90;;;;;;5052736;28;20567;-50
2022/06/02 07:40:23;;;;;;;11.80;10.80;;;19.90;99.90;;;;;;5052683;28;20230;-50
2022/06/02 07:43:23;;;;;;;11.57;10.67;;;20.10;99.90;;;;;;5052667;28;20205;-50
2022/06/02 07:46:07;;;;;;;11.07;10.27;;;20.60;99.90;;;;;;5049181;28;20209;-50
2022/06/02 07:49:00;;;;;;;12.63;11.73;;;21.10;99.90;;;;;;5052876;28;20197;-50
2022/06/02 07:51:33;;;;;;;10.47;9.87;;;21.40;99.90;;;;;;5052175;28;20773;-51
2022/06/02 07:54:16;;;;;;;9.77;9.17;;;21.40;99.90;;;;;;5052432;28;20221;-51
2022/06/02 07:56:56;;;;;;;10.20;9.33;;;21.50;99.90;;;;;;5052585;28;20742;-51
2022/06/02 07:59:37;;;;;;;7.97;7.57;;;22.50;99.90;;;;;;5052513;28;20237;-51
2022/06/02 08:02:29;;;;;;;8.37;7.83;;;23.40;99.90;;;;;;5047628;28;20205;-50
2022/06/02 08:05:04;;;;;;;7.67;7.27;;;23.50;99.90;;;;;;5052317;28;20202;-51
2022/06/02 08:07:41;;;;;;;5.70;5.30;;;23.30;99.90;;;;;;5048708;28;20197;-51
2022/06/02 08:10:17;;;;;;;5.67;5.47;;;23.10;99.90;;;;;;5043088;28;20587;-51
2022/06/02 08:12:51;;;;;;;5.70;5.40;;;23.00;99.90;;;;;;5050897;28;20689;-51
2022/06/02 08:15:29;;;;;;;4.27;4.07;;;23.60;99.90;;;;;;5046234;28;20283;-50
2022/06/02 08:18:06;;;;;;;3.57;3.33;;;24.80;99.90;;;;;;5046811;28;20234;-51
2022/06/02 08:20:49;;;;;;;4.27;4.17;;;26.00;99.90;;;;;;5047903;28;20217;-51
2022/06/02 08:23:47;;;;;;;2.60;2.50;;;26.70;99.90;;;;;;5049392;28;20198;-51
2022/06/02 08:26:19;;;;;;;2.92;2.83;;;27.20;99.90;;;;;;5051302;28;20204;-50
2022/06/02 08:29:01;;;;;;;3.07;3.03;;;27.70;99.90;;;;;;5050842;28;20205;-51
2022/06/02 08:31:50;;;;;;;2.35;2.35;;;27.40;99.90;;;;;;5050695;28;20221;-52
2022/06/02 08:34:22;;;;;;;2.45;2.45;;;27.20;99.90;;;;;;5050608;28;20210;-52
2022/06/02 08:37:00;;;;;;;2.78;2.08;;;27.20;99.90;;;;;;5050318;28;20206;-53
2022/06/02 08:39:44;;;;;;;2.63;2.58;;;27.90;99.90;;;;;;5050957;28;20217;-53
2022/06/02 08:42:46;;;;;;;2.42;2.33;;;28.20;99.90;;;;;;5051023;28;20212;-50
2022/06/02 08:45:52;;;;;;;3.38;3.28;;;28.10;99.90;;;;;;5050247;28;20193;-52
2022/06/02 08:48:44;;;;;;;1.77;1.77;;;27.80;99.90;;;;;;5014530;28;20198;-53
2022/06/02 08:51:47;;;;;;;2.38;2.28;;;28.50;99.90;;;;;;5050828;28;20689;-53
2022/06/02 08:55:04;;;;;;;2.63;2.42;;;28.40;99.90;;;;;;5050713;28;20217;-53
2022/06/02 08:58:00;;;;;;;1.80;1.80;;;28.10;99.90;;;;;;5049314;28;20332;-51
2022/06/02 09:00:39;;;;;;;2.38;2.38;;;28.10;99.90;;;;;;5051278;28;20646;-51
2022/06/02 09:03:38;;;;;;;2.65;2.58;;;28.20;99.90;;;;;;5047427;28;20190;-51
2022/06/02 09:06:43;;;;;;;2.92;2.72;;;28.40;99.90;;;;;;5047579;28;20228;-53
2022/06/02 09:09:39;;;;;;;2.70;2.60;;;27.20;99.90;;;;;;5047573;28;20210;-53
2022/06/02 09:12:22;;;;;;;2.60;2.50;;;26.20;99.90;;;;;;5048172;28;20503;-52
2022/06/02 09:15:32;;;;;;;2.90;2.70;;;25.90;99.90;;;;;;5045766;28;20699;-52
2022/06/02 09:18:16;;;;;;;2.38;2.35;;;26.30;99.90;;;;;;5024452;28;20620;-52
2022/06/02 09:20:49;;;;;;;3.13;3.03;;;25.30;99.90;;;;;;5039716;28;20241;-52
2022/06/02 09:23:47;;;;;;;2.90;2.75;;;24.60;99.90;;;;;;5038020;28;20194;-52
2022/06/02 09:26:42;;;;;;;3.38;3.08;;;25.40;99.90;;;;;;5045128;28;20231;-53
2022/06/02 09:29:23;;;;;;;2.60;2.60;;;25.80;99.90;;;;;;5038791;28;20202;-52
2022/06/02 09:32:18;;;;;;;3.63;2.73;;;25.30;99.90;;;;;;5039780;28;20206;-52
2022/06/02 09:35:13;;;;;;;2.42;2.33;;;25.50;99.90;;;;;;5039585;28;20221;-52
2022/06/02 09:38:15;;;;;;;2.47;2.37;;;25.50;99.90;;;;;;5040281;28;20229;-52
2022/06/02 09:40:51;;;;;;;3.08;2.72;;;25.30;99.90;;;;;;5041154;28;20253;-52
2022/06/02 09:43:53;;;;;;;3.03;2.83;;;24.90;99.90;;;;;;5040878;28;20658;-52
2022/06/02 09:46:54;;;;;;;2.53;2.47;;;24.80;99.90;;;;;;5040978;28;20201;-53
2022/06/02 09:50:03;;;;;;;2.63;2.63;;;24.40;99.90;;;;;;5015770;28;20210;-52
2022/06/02 09:52:46;;;;;;;4.07;3.80;;;24.10;99.90;;;;;;5039933;28;21003;-52
2022/06/02 09:55:33;;;;;;;2.77;2.67;;;23.80;99.90;;;;;;5041770;28;20263;-52
2022/06/02 09:58:23;;;;;;;3.97;3.10;;;23.80;99.90;;;;;;5046110;28;20201;-52
2022/06/02 10:01:01;;;;;;;5.47;5.23;;;23.70;99.90;;;;;;5044778;28;20233;-52
2022/06/02 10:03:54;;;;;;;7.65;7.07;;;23.10;99.90;;;;;;5041224;28;20477;-52
2022/06/02 10:06:48;;;;;;;7.60;7.17;;;22.80;99.90;;;;;;5076390;22;20251;-47
2022/06/02 10:09:25;;;;;;;7.63;7.13;;;22.40;99.90;;;;;;5103950;28;20554;-47
2022/06/02 10:12:54;;;;;;;6.60;6.17;;;21.90;99.90;;;;;;5100253;28;20758;-47
2022/06/02 10:15:22;;;;;;;8.60;8.00;;;21.80;99.90;;;;;;5105536;28;20227;-47
2022/06/02 10:18:00;;;;;;;7.77;7.37;;;21.20;99.90;;;;;;5086874;28;20246;-47
2022/06/02 10:20:52;;;;;;;8.10;7.63;;;20.90;99.90;;;;;;5080314;28;20278;-47
2022/06/02 10:23:40;;;;;;;7.77;7.37;;;21.00;99.90;;;;;;5079538;28;20204;-47
2022/06/02 10:26:22;;;;;;;7.97;7.57;;;20.90;99.90;;;;;;5086237;28;20197;-47
2022/06/02 10:29:30;;;;;;;6.57;6.27;;;21.30;99.90;;;;;;5071615;28;20687;-47
2022/06/02 10:32:20;;;;;;;7.57;7.13;;;22.50;99.90;;;;;;5083086;28;20243;-47
2022/06/02 10:35:23;;;;;;;6.97;6.47;;;23.10;99.90;;;;;;5077187;28;20308;-48
2022/06/02 10:38:03;;;;;;;6.10;5.70;;;23.70;99.90;;;;;;5078977;28;20636;-48
2022/06/02 10:40:51;;;;;;;4.70;4.50;;;23.90;99.90;;;;;;5092336;28;20244;-48
2022/06/02 10:43:54;;;;;;;3.67;3.53;;;24.60;99.90;;;;;;5077455;28;20205;-47
2022/06/02 10:47:06;;;;;;;4.23;4.13;;;24.50;99.90;;;;;;5076315;28;20219;-48
2022/06/02 10:49:39;;;;;;;5.87;5.60;;;24.60;99.90;;;;;;5074272;28;20201;-47
2022/06/02 10:52:43;;;;;;;5.37;5.17;;;23.90;99.90;;;;;;5079394;28;20573;-47
2022/06/02 10:55:34;;;;;;;3.83;3.73;;;23.70;99.90;;;;;;5075615;28;20867;-47
2022/06/02 10:58:34;;;;;;;6.67;6.30;;;24.50;99.90;;;;;;5079015;28;20220;-48
2022/06/02 11:01:34;;;;;;;4.80;4.50;;;24.80;99.90;;;;;;5081558;28;20205;-47
2022/06/02 11:04:35;;;;;;;4.73;4.53;;;24.90;99.90;;;;;;5084443;28;20237;-47
2022/06/02 11:07:48;;;;;;;5.63;5.33;;;24.90;99.90;;;;;;5085102;28;20232;-47
2022/06/02 11:10:25;;;;;;;5.93;5.43;;;24.80;99.90;;;;;;5079506;28;20242;-47
2022/06/02 11:13:36;;;;;;;5.20;4.90;;;24.90;99.90;;;;;;5093673;28;20253;-47
2022/06/02 11:16:46;;;;;;;5.83;5.57;;;25.00;99.90;;;;;;5075201;28;20192;-47
2022/06/02 11:19:48;;;;;;;5.97;5.77;;;24.60;99.90;;;;;;5075380;28;20292;-47
2022/06/02 11:22:54;;;;;;;5.93;5.63;;;24.80;99.90;;;;;;5084845;28;20260;-47
2022/06/02 11:26:16;;;;;;;7.10;6.70;;;24.80;99.90;;;;;;5076652;28;20205;-47
2022/06/02 11:29:34;;;;;;;6.33;6.13;;;24.60;99.90;;;;;;5076763;28;20583;-47
2022/06/02 11:32:20;;;;;;;5.93;5.73;;;24.40;99.90;;;;;;5064749;28;20262;-48
2022/06/02 11:35:31;;;;;;;6.13;5.83;;;24.40;99.90;;;;;;5074886;28;20220;-48
2022/06/02 11:38:22;;;;;;;6.20;6.00;;;24.10;99.90;;;;;;5074459;28;20219;-48
2022/06/02 11:41:26;;;;;;;5.10;4.90;;;23.80;99.90;;;;;;5076761;28;20201;-48
2022/06/02 11:44:04;;;;;;;6.10;5.80;;;23.70;99.90;;;;;;5047852;28;20197;-48
2022/06/02 11:47:16;;;;;;;6.23;5.83;;;23.70;99.90;;;;;;5082605;28;20217;-47
2022/06/02 11:50:11;;;;;;;5.47;5.27;;;23.60;99.90;;;;;;5080455;28;20204;-47
2022/06/02 11:53:29;;;;;;;5.20;4.80;;;23.50;99.90;;;;;;5087073;28;20265;-47
2022/06/02 11:56:02;;;;;;;4.43;4.23;;;23.50;99.90;;;;;;5047360;28;20200;-47
2022/06/02 11:59:04;;;;;;;4.93;4.73;;;23.70;99.90;;;;;;5076631;28;20204;-47
2022/06/02 12:02:00;;;;;;;5.60;5.20;;;23.80;99.90;;;;;;5074904;28;20550;-47
2022/06/02 12:05:00;;;;;;;4.03;3.93;;;23.80;99.90;;;;;;5079101;28;20198;-47
2022/06/02 12:08:05;;;;;;;6.67;4.10;;;23.80;99.90;;;;;;5040406;28;20233;-47
2022/06/02 12:10:59;;;;;;;3.83;3.63;;;24.00;99.90;;;;;;5071792;28;20646;-47
2022/06/02 12:13:45;;;;;;;5.23;4.97;;;24.20;99.90;;;;;;5085079;28;20554;-47
2022/06/02 12:16:36;;;;;;;4.40;4.17;;;24.30;99.90;;;;;;5094445;28;20262;-47
2022/06/02 12:19:21;;;;;;;3.80;3.70;;;24.20;99.90;;;;;;5086187;28;20689;-47
2022/06/02 12:22:14;;;;;;;3.60;3.50;;;24.40;99.90;;;;;;5076377;28;20209;-47
2022/06/02 12:25:32;;;;;;;4.27;4.07;;;24.30;99.90;;;;;;5074489;28;20600;-47
2022/06/02 12:28:48;;;;;;;3.37;3.20;;;24.30;99.90;;;;;;5000755;28;20273;-47
2022/06/02 12:31:42;;;;;;;3.40;3.30;;;24.60;99.90;;;;;;5006033;28;20203;-47
2022/06/02 12:34:40;;;;;;;4.27;4.17;;;24.60;99.90;;;;;;5069891;28;20266;-47
2022/06/02 12:37:24;;;;;;;2.80;2.60;;;24.60;99.90;;;;;;5074179;28;20982;-47
2022/06/02 12:40:07;;;;;;;2.87;2.73;;;24.60;99.90;;;;;;5070958;28;20273;-47
2022/06/02 12:43:11;;;;;;;3.63;2.87;;;24.70;99.90;;;;;;5074104;28;20196;-47
2022/06/02 12:45:51;;;;;;;2.93;2.67;;;24.40;99.90;;;;;;5072812;28;20200;-47
2022/06/02 12:48:52;;;;;;;3.40;3.10;;;24.40;99.90;;;;;;5075784;28;20701;-47
2022/06/02 12:51:36;;;;;;;3.03;2.80;;;24.40;99.90;;;;;;5081538;28;20196;-47
2022/06/02 12:54:42;;;;;;;3.07;2.87;;;24.50;99.90;;;;;;5085344;28;20285;-47
2022/06/02 12:57:49;;;;;;;6.80;3.30;;;24.60;99.90;;;;;;5080508;28;20938;-47
2022/06/02 13:00:39;;;;;;;3.40;3.30;;;24.60;99.90;;;;;;5076176;28;20261;-47
2022/06/02 13:03:43;;;;;;;2.90;2.87;;;24.60;99.90;;;;;;5076342;28;20215;-47
2022/06/02 13:06:46;;;;;;;3.30;3.20;;;24.40;99.90;;;;;;5072932;28;20228;-47
2022/06/02 13:09:58;;;;;;;3.50;3.40;;;24.50;99.90;;;;;;5077129;28;20196;-47
2022/06/02 13:13:01;;;;;;;3.20;3.10;;;24.70;99.90;;;;;;5036071;28;20202;-47
2022/06/02 13:16:06;;;;;;;3.43;3.27;;;24.70;99.90;;;;;;5068034;28;20220;-47
2022/06/02 13:18:51;;;;;;;2.83;2.63;;;24.70;99.90;;;;;;5064489;28;20286;-47
2022/06/02 13:21:54;;;;;;;3.63;3.33;;;24.80;99.90;;;;;;5075043;28;20212;-47
2022/06/02 13:24:56;;;;;;;3.30;3.10;;;24.80;99.90;;;;;;5076967;28;20200;-48
2022/06/02 13:28:10;;;;;;;3.38;3.28;;;24.70;99.90;;;;;;5073189;28;20450;-47
2022/06/02 13:31:23;;;;;;;2.03;1.93;;;24.40;99.90;;;;;;5071128;28;20196;-48
2022/06/02 13:34:18;;;;;;;2.30;2.20;;;24.70;99.90;;;;;;5075280;28;20204;-47
2022/06/02 13:37:08;;;;;;;2.23;2.23;;;25.00;99.90;;;;;;5097102;28;20763;-47
2022/06/02 13:40:07;;;;;;;2.57;2.43;;;25.20;99.90;;;;;;5079084;28;20192;-47
2022/06/02 13:42:57;;;;;;;1.90;1.80;;;24.80;99.90;;;;;;5055949;28;20220;-48
2022/06/02 13:45:57;;;;;;;1.60;1.50;;;24.80;99.90;;;;;;5075404;28;20197;-47
2022/06/02 13:49:15;;;;;;;1.53;1.53;;;25.00;99.90;;;;;;5073190;28;20196;-47
2022/06/02 13:52:09;;;;;;;1.80;1.57;;;24.80;99.90;;;;;;5063245;28;20262;-46
2022/06/02 13:58:08;;;;;;;2.73;1.00;;;24.50;99.90;;;;;;5056617;28;20261;-48
2022/06/02 14:01:09;;;;;;;1.23;1.13;;;24.50;99.90;;;;;;5087749;28;20200;-47
2022/06/02 14:04:07;;;;;;;1.40;1.30;;;24.60;99.90;;;;;;5075728;28;20763;-47
2022/06/02 14:06:42;;;;;;;1.30;1.30;;;24.60;99.90;;;;;;5073517;28;20233;-48
2022/06/02 14:09:32;;;;;;;1.00;1.00;;;24.60;99.90;;;;;;5082045;28;20197;-48
2022/06/02 14:12:42;;;;;;;1.40;1.40;;;24.60;99.90;;;;;;5076421;28;20200;-48
2022/06/02 14:15:31;;;;;;;1.17;1.17;;;24.60;99.90;;;;;;5080739;28;20220;-47
2022/06/02 14:18:22;;;;;;;1.23;1.10;;;24.50;99.90;;;;;;5089774;28;20270;-47
2022/06/02 14:20:58;;;;;;;2.83;1.40;;;24.10;99.90;;;;;;5086070;28;20247;-47
2022/06/02 14:23:41;;;;;;;1.30;1.30;;;24.00;99.90;;;;;;5075126;28;20254;-48
2022/06/02 14:26:22;;;;;;;1.60;1.60;;;24.00;99.90;;;;;;5075222;28;20208;-46
2022/06/02 14:29:26;;;;;;;1.07;1.03;;;24.10;99.90;;;;;;5075504;28;20205;-47